createdAt,value
2023-05-15T00:00:17.394Z,3.50
2023-05-15T00:03:19.110Z,3.50
2023-05-15T00:06:20.968Z,3.40
2023-05-15T00:09:22.532Z,3.70
2023-05-15T00:12:24.181Z,3.57
2023-05-15T00:15:25.906Z,3.27
2023-05-15T00:18:27.859Z,3.73
2023-05-15T00:21:29.917Z,3.53
2023-05-15T00:24:31.581Z,3.40
2023-05-15T00:27:33.457Z,3.80
2023-05-15T00:30:38.294Z,3.80
2023-05-15T00:33:41.342Z,3.70
2023-05-15T00:36:44.830Z,3.70
2023-05-15T00:39:46.461Z,3.67
2023-05-15T00:42:48.332Z,3.47
2023-05-15T00:45:52.490Z,3.87
2023-05-15T00:48:54.260Z,3.70
2023-05-15T00:52:02.012Z,3.57
2023-05-15T00:55:04.267Z,3.50
2023-05-15T00:58:06.462Z,3.80
2023-05-15T01:01:08.782Z,3.63
2023-05-15T01:04:11.973Z,3.53
2023-05-15T01:07:13.634Z,3.57
2023-05-15T01:10:16.702Z,3.53
2023-05-15T01:13:22.410Z,3.47
2023-05-15T01:16:23.996Z,3.57
2023-05-15T01:19:26.112Z,3.47
2023-05-15T01:22:37.090Z,3.60
2023-05-15T01:25:45.742Z,3.30
2023-05-15T01:28:51.867Z,3.83
2023-05-15T01:31:57.745Z,3.30
2023-05-15T01:35:11.626Z,3.70
2023-05-15T01:38:17.640Z,3.70
2023-05-15T01:41:29.761Z,3.93
2023-05-15T01:44:32.599Z,3.67
2023-05-15T01:47:44.731Z,3.80
2023-05-15T01:50:47.361Z,4.00
2023-05-15T01:53:49.497Z,4.00
2023-05-15T01:56:52.154Z,4.20
2023-05-15T01:59:54.374Z,4.57
2023-05-15T02:02:58.610Z,4.73
2023-05-15T02:06:01.648Z,4.37
2023-05-15T02:09:03.865Z,4.17
2023-05-15T02:12:06.615Z,4.13
2023-05-15T02:15:10.203Z,4.43
2023-05-15T02:18:12.278Z,4.00
2023-05-15T02:21:14.637Z,4.07
2023-05-15T02:24:17.283Z,4.30
2023-05-15T02:27:27.109Z,4.57
2023-05-15T02:30:40.827Z,4.20
2023-05-15T02:33:46.143Z,4.40
2023-05-15T02:36:48.664Z,4.43
2023-05-15T02:39:54.412Z,4.40
2023-05-15T02:42:56.987Z,4.10
2023-05-15T02:45:59.534Z,4.43
2023-05-15T02:49:01.686Z,3.80
2023-05-15T02:52:03.365Z,4.00
2023-05-15T02:55:05.118Z,4.53
2023-05-15T02:58:06.954Z,3.80
2023-05-15T03:01:08.777Z,4.10
2023-05-15T03:04:10.618Z,4.00
2023-05-15T03:07:12.480Z,4.10
2023-05-15T03:10:14.190Z,4.60
2023-05-15T03:13:15.822Z,4.30
2023-05-15T03:16:17.399Z,4.37
2023-05-15T03:19:19.013Z,4.80
2023-05-15T03:22:20.892Z,4.60
2023-05-15T03:25:22.795Z,5.10
2023-05-15T03:28:24.572Z,4.83
2023-05-15T03:31:26.284Z,4.77
2023-05-15T03:34:27.858Z,4.73
2023-05-15T03:37:29.578Z,4.30
2023-05-15T03:40:32.716Z,4.70
2023-05-15T03:43:34.309Z,5.27
2023-05-15T03:46:36.076Z,4.70
2023-05-15T03:49:37.814Z,5.10
2023-05-15T03:52:42.152Z,4.70
2023-05-15T03:55:44.105Z,4.87
2023-05-15T03:58:45.722Z,4.80
2023-05-15T04:02:02.569Z,5.00
2023-05-15T04:05:06.279Z,4.87
2023-05-15T04:08:10.109Z,5.53
2023-05-15T04:11:12.735Z,5.50
2023-05-15T04:14:14.365Z,4.97
2023-05-15T04:17:16.016Z,5.53
2023-05-15T04:20:18.866Z,5.30
2023-05-15T04:23:20.761Z,4.80
2023-05-15T04:26:22.601Z,4.73
2023-05-15T04:29:24.976Z,5.73
2023-05-15T04:32:30.339Z,4.60
2023-05-15T04:35:32.094Z,5.30
2023-05-15T04:38:34.531Z,5.40
2023-05-15T04:41:36.283Z,5.40
2023-05-15T04:44:37.977Z,6.27
2023-05-15T04:47:39.753Z,6.27
2023-05-15T04:50:41.354Z,6.70
2023-05-15T04:53:42.991Z,6.90
2023-05-15T04:56:45.512Z,5.83
2023-05-15T04:59:47.216Z,5.33
2023-05-15T05:02:48.915Z,5.30
2023-05-15T05:05:50.804Z,4.80
2023-05-15T05:08:52.838Z,5.07
2023-05-15T05:11:54.383Z,4.80
2023-05-15T05:14:56.790Z,4.50
2023-05-15T05:17:58.485Z,5.07
2023-05-15T05:21:01.265Z,5.20
2023-05-15T05:24:02.954Z,4.60
2023-05-15T05:27:04.713Z,5.10
2023-05-15T05:30:06.655Z,6.30
2023-05-15T05:33:08.313Z,5.93
2023-05-15T05:36:10.083Z,6.03
2023-05-15T05:39:11.934Z,5.20
2023-05-15T05:42:13.634Z,5.40
2023-05-15T05:45:15.278Z,5.27
2023-05-15T05:48:16.897Z,4.63
2023-05-15T05:51:18.561Z,5.80
2023-05-15T05:54:20.558Z,4.60
2023-05-15T05:57:22.233Z,5.17
2023-05-15T06:00:25.024Z,4.93
2023-05-15T06:03:26.973Z,4.23
2023-05-15T06:06:28.966Z,4.07
2023-05-15T06:09:30.694Z,4.60
2023-05-15T06:12:32.578Z,5.80
2023-05-15T06:15:34.190Z,4.53
2023-05-15T06:18:35.829Z,4.40
2023-05-15T06:21:37.550Z,5.47
2023-05-15T06:24:39.129Z,4.70
2023-05-15T06:27:41.242Z,5.13
2023-05-15T06:30:42.944Z,7.80
2023-05-15T06:33:44.578Z,4.00
2023-05-15T06:36:46.153Z,5.17
2023-05-15T06:39:47.847Z,4.70
2023-05-15T06:42:49.640Z,3.93
2023-05-15T06:45:53.108Z,3.90
2023-05-15T06:48:54.698Z,4.17
2023-05-15T06:51:56.348Z,3.97
2023-05-15T06:54:57.996Z,4.43
2023-05-15T06:57:59.623Z,4.77
2023-05-15T07:01:03.784Z,3.97
2023-05-15T07:04:05.528Z,4.75
2023-05-15T07:07:07.272Z,5.57
2023-05-15T07:10:09.273Z,6.75
2023-05-15T07:13:10.859Z,5.18
2023-05-15T07:16:12.562Z,6.00
2023-05-15T07:19:17.338Z,4.70
2023-05-15T07:22:19.024Z,4.10
2023-05-15T07:25:20.612Z,4.68
2023-05-15T07:28:22.357Z,4.30
2023-05-15T07:31:24.071Z,5.47
2023-05-15T07:34:25.954Z,4.57
2023-05-15T07:37:27.571Z,3.97
2023-05-15T07:40:29.292Z,4.50
2023-05-15T07:43:30.899Z,5.22
2023-05-15T07:46:33.203Z,4.00
2023-05-15T07:49:34.974Z,4.87
2023-05-15T07:52:36.575Z,4.87
2023-05-15T07:55:38.828Z,5.20
2023-05-15T07:58:40.427Z,5.03
2023-05-15T08:01:42.039Z,4.90
2023-05-15T08:04:43.839Z,4.53
2023-05-15T08:07:45.803Z,6.13
2023-05-15T08:10:47.413Z,5.07
2023-05-15T08:13:49.053Z,5.50
2023-05-15T08:16:51.781Z,5.50
2023-05-15T08:19:53.610Z,4.80
2023-05-15T08:22:55.261Z,4.90
2023-05-15T08:25:56.927Z,4.37
2023-05-15T08:28:58.612Z,4.33
2023-05-15T08:32:01.204Z,3.93
2023-05-15T08:35:03.005Z,3.27
2023-05-15T08:38:04.665Z,3.73
2023-05-15T08:41:13.084Z,3.40
2023-05-15T08:44:14.804Z,3.43
2023-05-15T08:47:16.619Z,3.33
2023-05-15T08:50:18.897Z,4.10
2023-05-15T08:53:20.722Z,4.27
2023-05-15T08:56:22.346Z,4.53
2023-05-15T08:59:23.987Z,3.87
2023-05-15T09:02:26.264Z,3.80
2023-05-15T09:05:30.817Z,4.33
2023-05-15T09:08:33.810Z,4.53
2023-05-15T09:11:35.510Z,4.10
2023-05-15T09:14:37.294Z,4.20
2023-05-15T09:17:39.771Z,4.77
2023-05-15T09:20:41.454Z,4.33
2023-05-15T09:23:43.273Z,4.70
2023-05-15T09:26:45.974Z,4.40
2023-05-15T09:29:47.639Z,4.33
2023-05-15T09:32:49.793Z,4.33
2023-05-15T09:35:51.560Z,4.80
2023-05-15T09:38:58.245Z,4.77
2023-05-15T09:42:06.708Z,3.43
2023-05-15T09:45:17.666Z,4.10
2023-05-15T09:48:19.462Z,4.20
2023-05-15T09:51:22.244Z,4.17
2023-05-15T09:54:24.212Z,4.00
2023-05-15T09:57:26.207Z,4.17
2023-05-15T10:00:32.034Z,4.63
2023-05-15T10:03:34.371Z,6.57
2023-05-15T10:06:37.539Z,6.40
2023-05-15T10:09:39.181Z,4.00
2023-05-15T10:12:40.859Z,4.97
2023-05-15T10:15:43.102Z,5.27
2023-05-15T10:18:45.622Z,6.23
2023-05-15T10:21:47.666Z,5.57
2023-05-15T10:24:52.699Z,5.53
2023-05-15T10:27:54.481Z,5.20
2023-05-15T10:31:00.001Z,5.27
2023-05-15T10:34:02.209Z,5.90
2023-05-15T10:37:04.832Z,5.20
2023-05-15T10:40:10.446Z,4.97
2023-05-15T10:43:13.473Z,5.17
2023-05-15T10:46:16.029Z,5.60
2023-05-15T10:49:17.661Z,4.93
2023-05-15T10:52:19.380Z,5.77
2023-05-15T10:55:22.416Z,7.50
2023-05-15T10:58:24.305Z,5.10
2023-05-15T11:01:33.346Z,4.90
2023-05-15T11:04:35.218Z,5.53
2023-05-15T11:07:37.328Z,5.70
2023-05-15T11:10:39.505Z,5.63
2023-05-15T11:14:00.000Z,6.03
2023-05-15T11:17:04.180Z,5.50
2023-05-15T11:20:06.315Z,5.47
2023-05-15T11:23:07.988Z,5.93
2023-05-15T11:26:09.739Z,5.40
2023-05-15T11:29:18.466Z,6.10
2023-05-15T11:32:38.647Z,6.37
2023-05-15T11:35:43.174Z,8.10
2023-05-15T11:38:44.931Z,6.03
2023-05-15T11:41:46.569Z,6.00
2023-05-15T11:44:48.177Z,9.43
2023-05-15T11:47:49.912Z,7.63
2023-05-15T11:50:53.985Z,6.50
2023-05-15T11:53:56.752Z,10.47
2023-05-15T11:56:58.633Z,7.67
2023-05-15T12:00:00.314Z,7.30
2023-05-15T12:03:03.995Z,10.23
2023-05-15T12:06:06.413Z,7.60
2023-05-15T12:09:13.162Z,8.33
2023-05-15T12:12:14.946Z,7.87
2023-05-15T12:15:17.337Z,7.20
2023-05-15T12:18:19.019Z,19.00
2023-05-15T12:21:21.013Z,6.40
2023-05-15T12:24:22.728Z,6.43
2023-05-15T12:27:24.379Z,5.50
2023-05-15T12:30:26.920Z,6.07
2023-05-15T12:33:28.873Z,6.43
2023-05-15T12:36:31.182Z,6.20
2023-05-15T12:39:32.879Z,6.60
2023-05-15T12:42:38.379Z,6.13
2023-05-15T12:45:40.714Z,5.47
2023-05-15T12:48:42.476Z,5.93
2023-05-15T12:51:44.413Z,5.87
2023-05-15T12:54:47.091Z,6.10
2023-05-15T12:57:48.809Z,5.83
2023-05-15T13:00:51.597Z,6.67
2023-05-15T13:03:53.573Z,6.97
2023-05-15T13:06:56.201Z,7.10
2023-05-15T13:10:07.221Z,7.20
2023-05-15T13:13:08.863Z,6.87
2023-05-15T13:16:19.766Z,7.93
2023-05-15T13:19:21.755Z,7.30
2023-05-15T13:22:23.486Z,8.07
2023-05-15T13:25:25.754Z,7.30
2023-05-15T13:28:27.427Z,6.87
2023-05-15T13:31:29.030Z,7.10
2023-05-15T13:34:30.739Z,7.33
2023-05-15T13:37:32.398Z,7.33
2023-05-15T13:40:35.575Z,6.73
2023-05-15T13:43:37.268Z,10.00
2023-05-15T13:46:39.021Z,7.17
2023-05-15T13:49:40.753Z,8.43
2023-05-15T13:52:43.371Z,7.03
2023-05-15T13:55:45.907Z,7.33
2023-05-15T13:58:47.658Z,7.77
2023-05-15T14:01:49.276Z,9.97
2023-05-15T14:04:50.926Z,7.53
2023-05-15T14:07:52.568Z,6.70
2023-05-15T14:10:54.231Z,6.23
2023-05-15T14:13:55.841Z,6.90
2023-05-15T14:16:57.600Z,6.57
2023-05-15T14:19:59.320Z,5.77
2023-05-15T14:23:01.087Z,6.20
2023-05-15T14:26:02.738Z,7.10
2023-05-15T14:29:04.555Z,5.93
2023-05-15T14:32:07.740Z,6.17
2023-05-15T14:35:09.555Z,6.80
2023-05-15T14:38:11.932Z,6.53
2023-05-15T14:41:13.939Z,6.03
2023-05-15T14:44:15.680Z,6.50
2023-05-15T14:47:17.436Z,6.07
2023-05-15T14:50:19.227Z,6.37
2023-05-15T14:53:20.844Z,6.30
2023-05-15T14:56:22.895Z,6.70
2023-05-15T14:59:25.210Z,6.80
2023-05-15T15:02:26.998Z,7.17
2023-05-15T15:05:28.687Z,7.43
2023-05-15T15:08:30.312Z,6.93
2023-05-15T15:11:32.019Z,6.97
2023-05-15T15:14:33.648Z,7.53
2023-05-15T15:17:35.316Z,6.70
2023-05-15T15:20:37.016Z,7.37
2023-05-15T15:23:38.727Z,6.33
2023-05-15T15:26:40.555Z,7.20
2023-05-15T15:29:42.256Z,8.37
2023-05-15T15:32:44.741Z,7.30
2023-05-15T15:35:46.693Z,7.63
2023-05-15T15:38:48.420Z,8.27
2023-05-15T15:41:50.096Z,7.47
2023-05-15T15:44:51.729Z,6.97
2023-05-15T15:47:53.368Z,8.80
2023-05-15T15:50:55.065Z,7.83
2023-05-15T15:53:56.742Z,7.67
2023-05-15T15:56:58.323Z,6.30
2023-05-15T15:59:59.910Z,6.83
2023-05-15T16:03:01.623Z,6.23
2023-05-15T16:06:03.443Z,7.30
2023-05-15T16:09:05.082Z,6.97
2023-05-15T16:12:06.707Z,6.87
2023-05-15T16:15:21.717Z,9.90
2023-05-15T16:18:23.871Z,8.00
2023-05-15T16:21:25.484Z,9.60
2023-05-15T16:24:27.117Z,15.17
2023-05-15T16:27:28.756Z,7.50
2023-05-15T16:30:44.300Z,8.33
2023-05-15T16:33:51.880Z,7.57
2023-05-15T16:36:53.522Z,10.63
2023-05-15T16:39:55.095Z,14.63
2023-05-15T16:42:56.720Z,15.17
2023-05-15T16:45:58.978Z,7.47
2023-05-15T16:49:00.724Z,5.63
2023-05-15T16:52:02.456Z,12.83
2023-05-15T16:55:04.420Z,7.13
2023-05-15T16:58:06.082Z,8.07
2023-05-15T17:01:07.728Z,6.07
2023-05-15T17:04:10.758Z,8.90
2023-05-15T17:07:12.371Z,10.33
2023-05-15T17:10:14.051Z,9.07
2023-05-15T17:13:15.932Z,6.90
2023-05-15T17:16:17.570Z,7.17
2023-05-15T17:19:19.368Z,10.57
2023-05-15T17:22:21.417Z,8.90
2023-05-15T17:25:23.202Z,9.83
2023-05-15T17:28:24.772Z,7.37
2023-05-15T17:31:26.952Z,9.50
2023-05-15T17:34:28.645Z,9.93
2023-05-15T17:37:30.370Z,9.60
2023-05-15T17:40:32.022Z,13.20
2023-05-15T17:43:33.773Z,10.73
2023-05-15T17:46:35.520Z,10.17
2023-05-15T17:49:37.782Z,12.20
2023-05-15T17:52:39.607Z,7.43
2023-05-15T17:55:41.275Z,10.93
2023-05-15T17:58:42.897Z,10.90
2023-05-15T18:01:45.158Z,10.40
2023-05-15T18:04:46.861Z,14.40
2023-05-15T18:07:48.532Z,13.77
2023-05-15T18:10:50.144Z,10.30
2023-05-15T18:13:51.733Z,9.70
2023-05-15T18:16:53.366Z,7.63
2023-05-15T18:19:55.000Z,8.77
2023-05-15T18:22:56.735Z,8.37
2023-05-15T18:25:58.308Z,9.03
2023-05-15T18:29:00.002Z,11.10
2023-05-15T18:32:01.758Z,14.63
2023-05-15T18:35:03.838Z,10.17
2023-05-15T18:38:06.141Z,10.97
2023-05-15T18:41:07.800Z,7.00
2023-05-15T18:44:09.450Z,6.77
2023-05-15T18:47:11.495Z,6.47
2023-05-15T18:50:14.357Z,6.70
2023-05-15T18:53:16.510Z,6.10
2023-05-15T18:56:18.123Z,6.27
2023-05-15T18:59:20.017Z,6.20
2023-05-15T19:02:22.671Z,6.33
2023-05-15T19:05:27.537Z,5.80
2023-05-15T19:08:29.391Z,5.80
2023-05-15T19:11:30.985Z,5.73
2023-05-15T19:14:33.128Z,5.60
2023-05-15T19:17:37.296Z,5.20
2023-05-15T19:20:39.698Z,5.43
2023-05-15T19:23:41.260Z,5.13
2023-05-15T19:26:42.859Z,5.63
2023-05-15T19:29:44.461Z,5.83
2023-05-15T19:32:46.059Z,6.30
2023-05-15T19:35:47.663Z,5.40
2023-05-15T19:38:49.388Z,5.43
2023-05-15T19:41:51.032Z,5.83
2023-05-15T19:44:52.611Z,5.77
2023-05-15T19:47:54.253Z,5.27
2023-05-15T19:50:55.870Z,5.20
2023-05-15T19:53:59.250Z,5.13
2023-05-15T19:57:03.146Z,5.23
2023-05-15T20:00:05.871Z,5.47
2023-05-15T20:03:07.562Z,6.03
2023-05-15T20:06:09.366Z,5.83
2023-05-15T20:09:10.945Z,5.90
2023-05-15T20:12:12.587Z,6.10
2023-05-15T20:15:14.691Z,5.10
2023-05-15T20:18:16.488Z,5.67
2023-05-15T20:21:18.149Z,6.73
2023-05-15T20:24:20.037Z,13.13
2023-05-15T20:27:22.274Z,6.43
2023-05-15T20:30:24.357Z,6.00
2023-05-15T20:33:29.172Z,6.40
2023-05-15T20:36:35.173Z,6.00
2023-05-15T20:39:37.019Z,5.60
2023-05-15T20:42:39.164Z,5.93
2023-05-15T20:45:41.619Z,5.40
2023-05-15T20:48:43.276Z,6.27
2023-05-15T20:51:44.965Z,6.10
2023-05-15T20:54:47.439Z,6.53
2023-05-15T20:57:51.873Z,6.50
2023-05-15T21:00:56.987Z,7.70
2023-05-15T21:03:58.774Z,7.10
2023-05-15T21:07:00.576Z,5.67
2023-05-15T21:10:02.519Z,6.90
2023-05-15T21:13:04.885Z,6.10
2023-05-15T21:16:06.650Z,6.17
2023-05-15T21:19:08.293Z,6.20
2023-05-15T21:22:09.902Z,5.22
2023-05-15T21:25:12.008Z,5.63
2023-05-15T21:28:13.693Z,6.07
2023-05-15T21:31:15.370Z,5.77
2023-05-15T21:34:17.009Z,5.43
2023-05-15T21:37:18.716Z,4.77
2023-05-15T21:40:20.296Z,5.00
2023-05-15T21:43:21.973Z,5.43
2023-05-15T21:46:23.684Z,5.33
2023-05-15T21:49:25.401Z,5.00
2023-05-15T21:52:27.080Z,5.13
2023-05-15T21:55:28.750Z,5.20
2023-05-15T21:58:30.390Z,5.17
2023-05-15T22:01:32.231Z,4.90
2023-05-15T22:04:34.379Z,4.83
2023-05-15T22:07:36.012Z,4.70
2023-05-15T22:10:37.649Z,4.93
2023-05-15T22:13:39.317Z,5.03
2023-05-15T22:16:41.044Z,4.93
2023-05-15T22:19:42.890Z,5.20
2023-05-15T22:22:44.570Z,5.50
2023-05-15T22:25:46.175Z,5.63
2023-05-15T22:28:48.710Z,4.93
2023-05-15T22:31:50.464Z,5.57
2023-05-15T22:34:52.125Z,4.60
2023-05-15T22:37:53.720Z,5.30
2023-05-15T22:40:55.430Z,5.33
2023-05-15T22:43:57.036Z,5.27
2023-05-15T22:46:59.063Z,5.10
2023-05-15T22:50:00.864Z,5.13
2023-05-15T22:53:02.583Z,5.40
2023-05-15T22:56:04.273Z,4.77
2023-05-15T22:59:06.268Z,5.37
2023-05-15T23:02:07.966Z,4.97
2023-05-15T23:05:09.751Z,4.87
2023-05-15T23:08:11.317Z,5.23
2023-05-15T23:11:12.962Z,4.93
2023-05-15T23:14:15.937Z,5.27
2023-05-15T23:17:17.664Z,5.40
2023-05-15T23:20:19.615Z,5.27
2023-05-15T23:23:21.274Z,5.37
2023-05-15T23:26:23.018Z,5.00
2023-05-15T23:29:24.790Z,5.70
2023-05-15T23:32:26.798Z,4.93
2023-05-15T23:35:28.489Z,5.73
2023-05-15T23:38:31.296Z,5.67
2023-05-15T23:41:32.942Z,5.43
2023-05-15T23:44:34.562Z,5.93
2023-05-15T23:47:36.720Z,5.50
2023-05-15T23:50:38.411Z,5.40
2023-05-15T23:53:40.054Z,5.57
2023-05-15T23:56:41.764Z,5.50
2023-05-15T23:59:43.453Z,5.40
